createdAt,value
2023-03-29T00:02:07.680Z,55.23
2023-03-29T00:04:35.724Z,54.78
2023-03-29T00:07:04.908Z,55.21
2023-03-29T00:09:33.598Z,54.92
2023-03-29T00:12:01.757Z,55.23
2023-03-29T00:14:31.103Z,55.42
2023-03-29T00:16:58.901Z,55.52
2023-03-29T00:19:26.469Z,55.62
2023-03-29T00:21:53.666Z,55.24
2023-03-29T00:24:21.555Z,55.32
2023-03-29T00:26:48.793Z,55.34
2023-03-29T00:29:16.165Z,55.39
2023-03-29T00:31:46.172Z,55.40
2023-03-29T00:34:13.499Z,55.84
2023-03-29T00:36:40.684Z,55.49
2023-03-29T00:39:07.723Z,55.48
2023-03-29T00:41:34.869Z,55.85
2023-03-29T00:44:04.390Z,55.90
2023-03-29T00:46:32.574Z,55.96
2023-03-29T00:49:07.355Z,56.35
2023-03-29T00:51:38.533Z,56.14
2023-03-29T00:54:07.103Z,56.19
2023-03-29T00:56:38.830Z,56.04
2023-03-29T00:59:11.005Z,55.89
2023-03-29T01:01:58.081Z,56.32
2023-03-29T01:04:45.677Z,56.61
2023-03-29T01:07:21.584Z,56.18
2023-03-29T01:09:55.669Z,56.69
2023-03-29T01:12:33.038Z,56.72
2023-03-29T01:15:06.323Z,56.48
2023-03-29T01:17:33.446Z,56.48
2023-03-29T01:20:10.930Z,56.70
2023-03-29T01:23:02.523Z,56.79
2023-03-29T01:26:17.029Z,56.84
2023-03-29T01:28:59.811Z,56.58
2023-03-29T01:31:44.053Z,57.19
2023-03-29T01:34:18.319Z,57.00
2023-03-29T01:36:54.933Z,57.05
2023-03-29T01:39:22.263Z,57.12
2023-03-29T01:42:14.599Z,57.39
2023-03-29T01:44:56.626Z,57.00
2023-03-29T01:47:36.401Z,57.25
2023-03-29T01:50:13.273Z,57.25
2023-03-29T01:52:47.702Z,57.31
2023-03-29T01:55:33.697Z,57.06
2023-03-29T01:58:03.238Z,56.98
2023-03-29T02:00:32.295Z,57.32
2023-03-29T02:03:03.444Z,57.35
2023-03-29T02:05:31.832Z,58.06
2023-03-29T02:08:03.168Z,57.39
2023-03-29T02:10:30.982Z,57.35
2023-03-29T02:12:58.732Z,57.40
2023-03-29T02:15:25.938Z,57.78
2023-03-29T02:17:53.119Z,57.49
2023-03-29T02:20:32.371Z,57.91
2023-03-29T02:23:09.257Z,58.48
2023-03-29T02:25:38.073Z,58.43
2023-03-29T02:28:07.089Z,58.33
2023-03-29T02:30:47.430Z,58.90
2023-03-29T02:33:22.019Z,58.19
2023-03-29T02:35:56.979Z,58.39
2023-03-29T02:38:25.818Z,58.28
2023-03-29T02:40:53.199Z,58.13
2023-03-29T02:43:22.625Z,58.07
2023-03-29T02:45:52.446Z,58.20
2023-03-29T02:48:23.716Z,58.59
2023-03-29T02:50:56.412Z,58.49
2023-03-29T02:53:29.975Z,58.27
2023-03-29T02:55:57.047Z,58.74
2023-03-29T02:58:27.086Z,58.17
2023-03-29T03:00:56.052Z,58.39
2023-03-29T03:03:23.342Z,58.08
2023-03-29T03:05:52.657Z,58.13
2023-03-29T03:08:19.982Z,58.16
2023-03-29T03:10:47.882Z,57.78
2023-03-29T03:13:14.871Z,57.91
2023-03-29T03:15:43.137Z,57.68
2023-03-29T03:18:10.979Z,57.29
2023-03-29T03:20:38.092Z,57.21
2023-03-29T03:23:05.101Z,56.76
2023-03-29T03:25:32.497Z,57.15
2023-03-29T03:27:59.704Z,56.04
2023-03-29T03:30:27.402Z,56.09
2023-03-29T03:32:57.794Z,55.96
2023-03-29T03:35:25.340Z,55.79
2023-03-29T03:37:52.328Z,55.36
2023-03-29T03:40:19.195Z,54.85
2023-03-29T03:42:46.203Z,54.54
2023-03-29T03:45:13.278Z,54.18
2023-03-29T03:47:41.212Z,53.87
2023-03-29T03:50:09.317Z,53.57
2023-03-29T03:52:36.556Z,53.34
2023-03-29T03:55:03.591Z,53.12
2023-03-29T03:57:33.173Z,52.45
2023-03-29T04:00:00.298Z,52.15
2023-03-29T04:02:27.713Z,51.58
2023-03-29T04:04:55.018Z,51.07
2023-03-29T04:07:22.078Z,50.79
2023-03-29T04:09:49.229Z,50.45
2023-03-29T04:12:16.419Z,49.34
2023-03-29T04:14:43.647Z,49.31
2023-03-29T04:17:10.767Z,48.42
2023-03-29T04:19:43.107Z,47.59
2023-03-29T04:22:10.237Z,46.47
2023-03-29T04:24:37.157Z,45.48
2023-03-29T04:27:04.242Z,44.76
2023-03-29T04:29:31.692Z,44.00
2023-03-29T04:31:58.682Z,43.57
2023-03-29T04:34:25.884Z,43.89
2023-03-29T04:36:53.060Z,43.31
2023-03-29T04:39:20.077Z,43.27
2023-03-29T04:41:50.573Z,43.08
2023-03-29T04:44:17.718Z,43.16
2023-03-29T04:46:44.841Z,42.92
2023-03-29T04:49:11.895Z,42.58
2023-03-29T04:51:39.334Z,42.51
2023-03-29T04:54:06.745Z,41.57
2023-03-29T04:56:33.739Z,39.94
2023-03-29T04:59:00.750Z,37.08
2023-03-29T05:01:27.719Z,35.83
2023-03-29T05:03:54.856Z,34.08
2023-03-29T05:06:22.029Z,33.82
2023-03-29T05:08:49.090Z,32.78
2023-03-29T05:11:16.763Z,34.76
2023-03-29T05:13:43.810Z,35.59
2023-03-29T05:16:11.393Z,36.80
2023-03-29T05:18:38.502Z,37.85
2023-03-29T05:21:06.631Z,37.86
2023-03-29T05:23:34.518Z,37.95
2023-03-29T05:26:01.584Z,38.44
2023-03-29T05:28:28.709Z,38.67
2023-03-29T05:31:04.737Z,38.12
2023-03-29T05:33:32.379Z,38.46
2023-03-29T05:36:08.916Z,38.34
2023-03-29T05:38:36.017Z,38.20
2023-03-29T05:41:03.435Z,38.56
2023-03-29T05:43:31.075Z,38.53
2023-03-29T05:45:58.274Z,38.68
2023-03-29T05:48:26.274Z,38.54
2023-03-29T05:50:55.541Z,38.08
2023-03-29T05:53:24.416Z,37.06
2023-03-29T05:55:51.974Z,36.96
2023-03-29T05:58:21.814Z,36.51
2023-03-29T06:00:50.111Z,35.43
2023-03-29T06:03:21.111Z,33.69
2023-03-29T06:05:55.222Z,31.66
2023-03-29T06:08:22.517Z,31.08
2023-03-29T06:10:50.502Z,29.52
2023-03-29T06:13:17.702Z,28.54
2023-03-29T06:15:45.245Z,28.34
2023-03-29T06:18:12.658Z,28.12
2023-03-29T06:20:39.750Z,28.51
2023-03-29T06:23:08.192Z,28.80
2023-03-29T06:25:35.564Z,28.03
2023-03-29T06:28:02.901Z,27.38
2023-03-29T06:30:29.879Z,25.98
2023-03-29T06:32:59.805Z,24.98
2023-03-29T06:35:27.367Z,23.90
2023-03-29T06:37:54.608Z,23.49
2023-03-29T06:40:23.056Z,23.25
2023-03-29T06:42:51.366Z,22.66
2023-03-29T06:45:19.684Z,22.55
2023-03-29T06:47:47.581Z,22.07
2023-03-29T06:50:14.890Z,21.49
2023-03-29T06:52:42.012Z,20.38
2023-03-29T06:55:10.078Z,19.65
2023-03-29T06:57:37.630Z,18.83
2023-03-29T07:00:15.541Z,18.69
2023-03-29T07:02:42.829Z,19.41
2023-03-29T07:05:13.694Z,19.89
2023-03-29T07:08:00.504Z,20.07
2023-03-29T07:10:32.876Z,19.20
2023-03-29T07:13:02.225Z,18.45
2023-03-29T07:15:29.584Z,17.96
2023-03-29T07:17:57.700Z,17.45
2023-03-29T07:20:27.320Z,16.76
2023-03-29T07:22:57.678Z,16.83
2023-03-29T07:25:26.128Z,17.35
2023-03-29T07:27:54.009Z,18.45
2023-03-29T07:30:24.061Z,19.47
2023-03-29T07:32:52.594Z,20.26
2023-03-29T07:35:20.192Z,20.98
2023-03-29T07:37:47.707Z,21.20
2023-03-29T07:40:23.845Z,21.77
2023-03-29T07:42:54.359Z,22.31
2023-03-29T07:45:26.625Z,22.08
2023-03-29T07:47:57.522Z,21.85
2023-03-29T07:50:26.009Z,21.12
2023-03-29T07:52:53.528Z,20.11
2023-03-29T07:55:20.831Z,17.93
2023-03-29T07:57:49.600Z,15.45
2023-03-29T08:00:17.708Z,13.42
2023-03-29T08:02:46.876Z,12.11
2023-03-29T08:05:18.960Z,11.58
2023-03-29T08:07:50.935Z,10.80
2023-03-29T08:10:22.514Z,10.55
2023-03-29T08:12:50.554Z,10.07
2023-03-29T08:15:17.875Z,9.45
2023-03-29T08:17:47.025Z,9.59
2023-03-29T08:20:18.561Z,9.30
2023-03-29T08:22:45.702Z,9.33
2023-03-29T08:25:13.052Z,8.58
2023-03-29T08:27:40.344Z,9.79
2023-03-29T08:30:09.658Z,10.49
2023-03-29T08:32:37.733Z,11.86
2023-03-29T08:35:06.843Z,12.97
2023-03-29T08:37:34.107Z,14.36
2023-03-29T08:40:01.981Z,15.89
2023-03-29T08:43:06.362Z,17.47
2023-03-29T08:45:53.572Z,18.18
2023-03-29T08:48:37.953Z,17.97
2023-03-29T08:51:28.464Z,16.53
2023-03-29T08:54:02.471Z,15.26
2023-03-29T08:56:34.255Z,14.06
2023-03-29T08:59:01.771Z,14.17
2023-03-29T09:01:34.401Z,14.97
2023-03-29T09:04:10.184Z,16.28
2023-03-29T09:06:40.172Z,17.37
2023-03-29T09:09:15.945Z,18.31
2023-03-29T09:12:02.067Z,19.69
2023-03-29T09:14:57.844Z,20.94
2023-03-29T09:17:49.681Z,21.82
2023-03-29T09:20:51.793Z,22.84
2023-03-29T09:23:30.848Z,23.68
2023-03-29T09:26:28.575Z,24.31
2023-03-29T09:28:55.565Z,25.31
2023-03-29T09:31:28.689Z,26.06
2023-03-29T09:34:01.936Z,26.30
2023-03-29T09:36:47.573Z,26.34
2023-03-29T09:39:16.504Z,25.58
2023-03-29T09:41:52.906Z,25.11
2023-03-29T09:44:30.864Z,24.79
2023-03-29T09:47:06.516Z,25.59
2023-03-29T09:49:38.447Z,27.09
2023-03-29T09:52:11.703Z,27.67
2023-03-29T09:54:38.946Z,28.14
2023-03-29T09:57:06.112Z,28.30
2023-03-29T09:59:33.123Z,30.02
2023-03-29T10:02:08.683Z,30.08
2023-03-29T10:04:37.035Z,29.80
2023-03-29T10:07:04.921Z,29.86
2023-03-29T10:09:33.187Z,29.89
2023-03-29T10:12:05.212Z,29.71
2023-03-29T10:14:43.764Z,30.05
2023-03-29T10:17:20.190Z,30.00
2023-03-29T10:19:53.244Z,30.33
2023-03-29T10:22:25.810Z,30.53
2023-03-29T10:24:55.306Z,31.13
2023-03-29T10:27:26.259Z,31.23
2023-03-29T10:29:54.741Z,31.68
2023-03-29T10:32:33.749Z,31.94
2023-03-29T10:35:35.130Z,32.34
2023-03-29T10:38:07.944Z,31.98
2023-03-29T10:40:35.958Z,32.23
2023-03-29T10:43:22.742Z,31.93
2023-03-29T10:45:51.972Z,31.99
2023-03-29T10:48:19.583Z,31.51
2023-03-29T10:50:53.199Z,30.99
2023-03-29T10:53:27.819Z,30.60
2023-03-29T10:55:54.836Z,29.56
2023-03-29T10:58:49.767Z,28.73
2023-03-29T11:01:27.423Z,28.25
2023-03-29T11:04:12.459Z,27.85
2023-03-29T11:07:05.703Z,27.04
2023-03-29T11:09:54.394Z,26.66
2023-03-29T11:12:43.363Z,26.57
2023-03-29T11:15:19.364Z,26.27
2023-03-29T11:18:12.460Z,26.29
2023-03-29T11:20:43.338Z,26.44
2023-03-29T11:23:35.080Z,26.30
2023-03-29T11:26:25.346Z,25.83
2023-03-29T11:29:12.002Z,25.68
2023-03-29T11:31:58.258Z,25.60
2023-03-29T11:35:05.190Z,25.14
2023-03-29T11:37:54.126Z,24.47
2023-03-29T11:40:39.732Z,24.02
2023-03-29T11:43:15.452Z,23.44
2023-03-29T11:45:52.759Z,23.15
2023-03-29T11:48:26.192Z,23.78
2023-03-29T11:51:10.896Z,24.87
2023-03-29T11:53:46.695Z,26.02
2023-03-29T11:56:19.741Z,26.93
2023-03-29T11:58:53.933Z,27.22
2023-03-29T12:01:45.276Z,26.92
2023-03-29T12:04:26.812Z,26.61
2023-03-29T12:07:06.441Z,26.70
2023-03-29T12:09:51.308Z,27.13
2023-03-29T12:12:36.831Z,27.40
2023-03-29T12:15:11.014Z,28.00
2023-03-29T12:17:46.714Z,28.29
2023-03-29T12:20:31.941Z,28.59
2023-03-29T12:22:59.337Z,28.76
2023-03-29T12:25:44.666Z,29.08
2023-03-29T12:28:47.474Z,29.16
2023-03-29T12:31:24.669Z,30.06
2023-03-29T12:34:09.256Z,30.12
2023-03-29T12:37:02.116Z,30.55
2023-03-29T12:39:31.592Z,30.72
2023-03-29T12:42:16.383Z,30.99
2023-03-29T12:44:51.702Z,30.75
2023-03-29T12:47:24.806Z,31.14
2023-03-29T12:49:57.558Z,31.35
2023-03-29T12:52:34.175Z,31.45
2023-03-29T12:55:04.658Z,31.38
2023-03-29T12:58:00.543Z,31.51
2023-03-29T13:00:34.253Z,32.04
2023-03-29T13:03:20.047Z,32.22
2023-03-29T13:05:47.330Z,32.47
2023-03-29T13:08:26.334Z,32.78
2023-03-29T13:10:55.928Z,32.80
2023-03-29T13:13:29.796Z,33.15
2023-03-29T13:16:09.802Z,33.83
2023-03-29T13:18:58.625Z,34.23
2023-03-29T13:21:47.172Z,35.07
2023-03-29T13:24:29.126Z,35.12
2023-03-29T13:27:25.313Z,35.55
2023-03-29T13:30:15.709Z,35.87
2023-03-29T13:33:08.859Z,36.17
2023-03-29T13:35:46.218Z,36.63
2023-03-29T13:38:21.489Z,36.87
2023-03-29T13:41:07.441Z,37.41
2023-03-29T13:43:54.714Z,37.71
2023-03-29T13:46:41.100Z,37.96
2023-03-29T13:49:28.561Z,38.85
2023-03-29T13:52:12.696Z,38.60
2023-03-29T13:54:58.320Z,38.85
2023-03-29T13:57:38.589Z,38.97
2023-03-29T14:00:20.465Z,38.93
2023-03-29T14:02:58.316Z,39.59
2023-03-29T14:05:35.567Z,39.60
2023-03-29T14:08:09.867Z,39.89
2023-03-29T14:10:42.309Z,39.86
2023-03-29T14:13:18.444Z,39.85
2023-03-29T14:16:09.347Z,40.39
2023-03-29T14:18:44.810Z,40.28
2023-03-29T14:21:14.261Z,40.36
2023-03-29T14:23:44.973Z,40.17
2023-03-29T14:26:14.758Z,40.23
2023-03-29T14:28:50.724Z,40.31
2023-03-29T14:31:18.810Z,40.64
2023-03-29T14:33:46.181Z,40.83
2023-03-29T14:36:18.081Z,40.97
2023-03-29T14:38:51.381Z,41.35
2023-03-29T14:41:18.419Z,42.50
2023-03-29T14:43:47.486Z,41.46
2023-03-29T14:46:18.176Z,42.00
2023-03-29T14:48:45.894Z,42.11
2023-03-29T14:51:13.115Z,42.19
2023-03-29T14:53:41.859Z,42.10
2023-03-29T14:56:13.666Z,43.35
2023-03-29T14:58:49.195Z,42.54
2023-03-29T15:01:19.285Z,42.28
2023-03-29T15:04:02.270Z,42.89
2023-03-29T15:06:31.032Z,42.44
2023-03-29T15:09:05.235Z,42.73
2023-03-29T15:11:34.547Z,43.15
2023-03-29T15:14:14.559Z,42.82
2023-03-29T15:16:44.219Z,43.10
2023-03-29T15:19:18.802Z,43.30
2023-03-29T15:21:48.670Z,43.46
2023-03-29T15:24:29.711Z,43.70
2023-03-29T15:27:01.599Z,43.79
2023-03-29T15:29:37.302Z,44.04
2023-03-29T15:32:04.579Z,43.91
2023-03-29T15:34:33.510Z,44.12
2023-03-29T15:37:02.113Z,44.17
2023-03-29T15:39:29.742Z,44.00
2023-03-29T15:41:57.905Z,44.18
2023-03-29T15:44:32.332Z,44.39
2023-03-29T15:47:00.106Z,44.84
2023-03-29T15:49:27.379Z,44.70
2023-03-29T15:51:54.562Z,45.40
2023-03-29T15:54:25.002Z,44.77
2023-03-29T15:56:55.649Z,45.60
2023-03-29T15:59:23.545Z,45.52
2023-03-29T16:01:50.996Z,45.46
2023-03-29T16:04:20.138Z,45.59
2023-03-29T16:06:49.545Z,45.72
2023-03-29T16:09:17.336Z,45.77
2023-03-29T16:11:45.759Z,46.23
2023-03-29T16:14:23.246Z,46.02
2023-03-29T16:16:51.647Z,45.96
2023-03-29T16:19:19.563Z,46.16
2023-03-29T16:21:46.645Z,46.00
2023-03-29T16:24:24.892Z,46.50
2023-03-29T16:26:55.495Z,46.35
2023-03-29T16:29:23.820Z,46.64
2023-03-29T16:31:51.495Z,46.51
2023-03-29T16:34:19.426Z,46.42
2023-03-29T16:36:47.977Z,46.40
2023-03-29T16:39:16.298Z,46.68
2023-03-29T16:41:45.367Z,46.59
2023-03-29T16:44:23.814Z,46.70
2023-03-29T16:46:54.113Z,47.05
2023-03-29T16:49:21.820Z,46.94
2023-03-29T16:51:48.851Z,47.22
2023-03-29T16:54:20.210Z,46.82
2023-03-29T16:56:47.504Z,47.19
2023-03-29T16:59:15.525Z,46.97
2023-03-29T17:01:42.999Z,47.39
2023-03-29T17:04:10.285Z,47.14
2023-03-29T17:06:37.345Z,46.77
2023-03-29T17:09:05.335Z,46.68
2023-03-29T17:11:32.541Z,47.33
2023-03-29T17:14:00.366Z,46.98
2023-03-29T17:16:29.351Z,47.15
2023-03-29T17:19:00.614Z,47.01
2023-03-29T17:21:29.142Z,46.95
2023-03-29T17:23:56.261Z,46.85
2023-03-29T17:26:23.422Z,46.99
2023-03-29T17:28:50.641Z,47.02
2023-03-29T17:31:19.572Z,46.80
2023-03-29T17:33:47.687Z,47.17
2023-03-29T17:36:14.824Z,47.16
2023-03-29T17:38:43.223Z,46.96
2023-03-29T17:41:10.421Z,47.10
2023-03-29T17:43:37.414Z,47.51
2023-03-29T17:46:04.910Z,47.45
2023-03-29T17:48:33.145Z,47.53
2023-03-29T17:51:00.235Z,47.58
2023-03-29T17:53:27.589Z,47.78
2023-03-29T17:55:54.744Z,47.65
2023-03-29T17:58:21.870Z,47.93
2023-03-29T18:00:49.051Z,47.89
2023-03-29T18:03:19.034Z,48.61
2023-03-29T18:05:46.296Z,48.36
2023-03-29T18:08:15.139Z,47.95
2023-03-29T18:10:42.471Z,48.12
2023-03-29T18:13:13.981Z,48.07
2023-03-29T18:15:41.186Z,48.08
2023-03-29T18:18:08.728Z,48.42
2023-03-29T18:20:35.813Z,48.20
2023-03-29T18:23:03.033Z,48.00
2023-03-29T18:25:30.219Z,47.93
2023-03-29T18:27:57.319Z,48.20
2023-03-29T18:30:27.980Z,48.08
2023-03-29T18:32:55.280Z,48.20
2023-03-29T18:35:22.756Z,47.72
2023-03-29T18:37:49.829Z,47.96
2023-03-29T18:40:20.523Z,47.72
2023-03-29T18:42:47.435Z,47.81
2023-03-29T18:45:14.431Z,47.81
2023-03-29T18:47:41.419Z,47.78
2023-03-29T18:50:09.916Z,47.58
2023-03-29T18:52:37.941Z,48.07
2023-03-29T18:55:07.379Z,47.99
2023-03-29T18:57:34.463Z,47.96
2023-03-29T19:00:01.503Z,47.89
2023-03-29T19:02:30.585Z,48.11
2023-03-29T19:04:57.724Z,48.07
2023-03-29T19:07:24.678Z,48.03
2023-03-29T19:09:51.901Z,48.23
2023-03-29T19:12:18.864Z,48.51
2023-03-29T19:14:45.923Z,48.90
2023-03-29T19:17:13.036Z,48.67
2023-03-29T19:19:40.062Z,48.83
2023-03-29T19:22:07.108Z,48.79
2023-03-29T19:24:34.050Z,48.60
2023-03-29T19:27:02.005Z,48.79
2023-03-29T19:29:29.180Z,48.75
2023-03-29T19:31:57.360Z,48.58
2023-03-29T19:34:24.858Z,48.81
2023-03-29T19:36:53.728Z,48.71
2023-03-29T19:39:21.297Z,48.43
2023-03-29T19:41:48.803Z,48.97
2023-03-29T19:44:15.934Z,48.85
2023-03-29T19:46:42.891Z,48.76
2023-03-29T19:49:13.787Z,49.16
2023-03-29T19:51:44.478Z,48.91
2023-03-29T19:54:13.495Z,48.74
2023-03-29T19:56:43.074Z,48.75
2023-03-29T19:59:11.346Z,49.05
2023-03-29T20:01:40.854Z,48.84
2023-03-29T20:04:08.012Z,48.85
2023-03-29T20:06:35.268Z,49.17
2023-03-29T20:09:05.150Z,49.17
2023-03-29T20:11:32.195Z,48.84
2023-03-29T20:13:59.149Z,49.08
2023-03-29T20:16:27.311Z,49.13
2023-03-29T20:18:54.368Z,48.89
2023-03-29T20:21:21.432Z,49.37
2023-03-29T20:23:48.404Z,49.24
2023-03-29T20:26:15.549Z,49.46
2023-03-29T20:28:42.775Z,49.58
2023-03-29T20:31:12.449Z,49.81
2023-03-29T20:33:39.969Z,49.70
2023-03-29T20:36:07.337Z,49.88
2023-03-29T20:38:35.923Z,50.03
2023-03-29T20:41:04.594Z,50.11
2023-03-29T20:43:37.616Z,50.17
2023-03-29T20:46:06.027Z,50.21
2023-03-29T20:48:33.104Z,50.07
2023-03-29T20:51:03.360Z,49.80
2023-03-29T20:53:34.409Z,49.92
2023-03-29T20:56:01.339Z,49.69
2023-03-29T20:58:29.231Z,49.92
2023-03-29T21:01:00.318Z,49.93
2023-03-29T21:03:27.344Z,49.98
2023-03-29T21:05:55.315Z,49.63
2023-03-29T21:08:22.302Z,49.84
2023-03-29T21:10:49.260Z,49.72
2023-03-29T21:13:18.392Z,49.69
2023-03-29T21:15:46.655Z,49.65
2023-03-29T21:18:14.314Z,49.64
2023-03-29T21:20:41.583Z,49.79
2023-03-29T21:23:08.503Z,49.50
2023-03-29T21:25:35.606Z,49.54
2023-03-29T21:28:02.640Z,49.53
2023-03-29T21:30:31.920Z,49.70
2023-03-29T21:32:59.300Z,49.51
2023-03-29T21:35:26.329Z,49.83
2023-03-29T21:37:53.349Z,49.63
2023-03-29T21:40:20.388Z,49.80
2023-03-29T21:42:47.301Z,49.75
2023-03-29T21:45:14.345Z,50.04
2023-03-29T21:47:41.465Z,49.91
2023-03-29T21:50:09.653Z,50.17
2023-03-29T21:52:37.963Z,50.04
2023-03-29T21:55:08.704Z,50.28
2023-03-29T21:57:35.744Z,50.03
2023-03-29T22:00:03.841Z,49.96
2023-03-29T22:02:31.232Z,49.95
2023-03-29T22:04:58.265Z,49.98
2023-03-29T22:07:25.294Z,49.63
2023-03-29T22:09:52.294Z,49.49
2023-03-29T22:12:19.212Z,49.45
2023-03-29T22:14:46.338Z,49.58
2023-03-29T22:17:13.739Z,49.27
2023-03-29T22:19:41.914Z,49.49
2023-03-29T22:22:13.898Z,49.17
2023-03-29T22:24:42.347Z,49.22
2023-03-29T22:27:10.663Z,48.93
2023-03-29T22:29:37.766Z,49.09
2023-03-29T22:32:04.999Z,49.07
2023-03-29T22:34:32.588Z,48.75
2023-03-29T22:36:59.581Z,48.86
2023-03-29T22:39:26.984Z,48.77
2023-03-29T22:41:53.943Z,48.58
2023-03-29T22:44:21.113Z,48.27
2023-03-29T22:46:51.314Z,48.32
2023-03-29T22:49:18.272Z,48.51
2023-03-29T22:51:45.650Z,48.39
2023-03-29T22:54:13.147Z,48.33
2023-03-29T22:56:40.886Z,48.45
2023-03-29T22:59:08.068Z,48.30
2023-03-29T23:01:35.114Z,48.30
2023-03-29T23:04:02.203Z,48.26
2023-03-29T23:06:29.258Z,48.13
2023-03-29T23:08:56.328Z,48.04
2023-03-29T23:11:23.394Z,48.04
2023-03-29T23:13:51.248Z,48.23
2023-03-29T23:16:20.966Z,47.90
2023-03-29T23:18:48.365Z,48.23
2023-03-29T23:21:15.533Z,47.84
2023-03-29T23:23:43.548Z,47.75
2023-03-29T23:26:11.269Z,47.80
2023-03-29T23:28:38.470Z,47.82
2023-03-29T23:31:13.567Z,47.51
2023-03-29T23:33:43.013Z,47.82
2023-03-29T23:36:12.524Z,47.68
2023-03-29T23:38:40.234Z,47.67
2023-03-29T23:41:10.564Z,47.36
2023-03-29T23:43:42.992Z,47.74
2023-03-29T23:46:13.359Z,47.64
2023-03-29T23:48:40.469Z,47.57
2023-03-29T23:51:08.379Z,47.45
2023-03-29T23:53:35.543Z,47.56
2023-03-29T23:56:04.554Z,47.51
2023-03-29T23:58:34.377Z,47.38
